DLH9HE EDDM-EDDL
Flight info
| Callsign | DLH9HE |
|---|---|
| Flight time | 1h 24m |
| Altitude | 32000 |
| Route | GIVMI6Q/08L GIVMI Y101 INBED DCT REKDI DCT LOHRE Z850 ADEMI T854 DOMUX DOMUX1A |
| Aircraft | A346/H-SDE2E3FGHIJ3J4J5M1RWXY/LB1D1 |
Departure
| Time | 2026-05-04 18:17 |
|---|---|
| Airport | Munich Airport (EDDM) |
Arrival
| Time | 2026-05-04 19:41 |
|---|---|
| Airport | Düsseldorf Airport (EDDL) |
| Time | Latitude | Longitude | Altitude | Speed | Heading |
|---|---|---|---|---|---|
| 2026-05-04 17:28 | 48.35411 | 11.79336 | 1494 ft | 0 kts | 271° |
| 2026-05-04 17:52 | 48.35411 | 11.79345 | 1494 ft | 4 kts | 271° |
| 2026-05-04 17:53 | 48.35410 | 11.79386 | 1487 ft | 4 kts | 272° |
| 2026-05-04 17:53 | 48.35409 | 11.79420 | 1477 ft | 4 kts | 262° |
| 2026-05-04 17:53 | 48.35415 | 11.79443 | 1477 ft | 4 kts | 221° |
| 2026-05-04 17:53 | 48.35432 | 11.79454 | 1482 ft | 4 kts | 186° |
| 2026-05-04 17:54 | 48.35458 | 11.79454 | 1477 ft | 4 kts | 174° |
| 2026-05-04 17:54 | 48.35470 | 11.79452 | 1481 ft | 0 kts | 173° |
| 2026-05-04 17:55 | 48.35464 | 11.79453 | 1480 ft | 2 kts | 170° |
| 2026-05-04 17:56 | 48.35459 | 11.79459 | 1477 ft | 2 kts | 126° |
| 2026-05-04 17:56 | 48.35477 | 11.79536 | 1478 ft | 14 kts | 47° |
| 2026-05-04 17:56 | 48.35574 | 11.79579 | 1480 ft | 6 kts | 333° |
| 2026-05-04 17:56 | 48.35648 | 11.79556 | 1480 ft | 16 kts | 350° |
| 2026-05-04 17:57 | 48.35796 | 11.79531 | 1485 ft | 26 kts | 354° |
| 2026-05-04 17:57 | 48.35923 | 11.79508 | 1488 ft | 3 kts | 353° |
| 2026-05-04 18:01 | 48.35955 | 11.79503 | 1480 ft | 14 kts | 353° |
| 2026-05-04 18:01 | 48.36110 | 11.79475 | 1483 ft | 20 kts | 353° |
| 2026-05-04 18:02 | 48.36239 | 11.79787 | 1482 ft | 22 kts | 83° |
| 2026-05-04 18:02 | 48.36258 | 11.80028 | 1494 ft | 24 kts | 83° |
| 2026-05-04 18:02 | 48.36278 | 11.80291 | 1494 ft | 26 kts | 83° |
| 2026-05-04 18:02 | 48.36299 | 11.80567 | 1494 ft | 27 kts | 83° |
| 2026-05-04 18:03 | 48.36322 | 11.80857 | 1487 ft | 28 kts | 83° |
| 2026-05-04 18:03 | 48.36345 | 11.81157 | 1491 ft | 29 kts | 83° |
| 2026-05-04 18:03 | 48.36370 | 11.81469 | 1491 ft | 30 kts | 83° |
| 2026-05-04 18:03 | 48.36394 | 11.81789 | 1482 ft | 31 kts | 83° |
| 2026-05-04 18:04 | 48.36442 | 11.81991 | 1484 ft | 17 kts | 15° |
| 2026-05-04 18:04 | 48.36551 | 11.81983 | 1485 ft | 11 kts | 354° |
| 2026-05-04 18:04 | 48.36554 | 11.81983 | 1494 ft | 0 kts | 354° |
| 2026-05-04 18:06 | 48.36601 | 11.81975 | 1494 ft | 19 kts | 350° |
| 2026-05-04 18:06 | 48.36663 | 11.81762 | 1485 ft | 25 kts | 259° |
| 2026-05-04 18:07 | 48.36655 | 11.81692 | 1489 ft | 0 kts | 263° |
| 2026-05-04 18:07 | 48.36628 | 11.81353 | 1488 ft | 79 kts | 263° |
| 2026-05-04 18:07 | 48.36540 | 11.80121 | 1494 ft | 123 kts | 263° |
| 2026-05-04 18:07 | 48.36495 | 11.79577 | 1485 ft | 0 kts | 263° |
| 2026-05-04 18:08 | 48.36493 | 11.79556 | 1484 ft | 8 kts | 263° |
| 2026-05-04 18:08 | 48.36477 | 11.79359 | 1488 ft | 39 kts | 263° |
| 2026-05-04 18:08 | 48.36406 | 11.78941 | 1483 ft | 41 kts | 240° |
| 2026-05-04 18:09 | 48.36225 | 11.78558 | 1481 ft | 0 kts | 233° |
| 2026-05-04 18:10 | 48.36222 | 11.78551 | 1480 ft | 2 kts | 233° |
| 2026-05-04 18:10 | 48.36206 | 11.78522 | 1484 ft | 5 kts | 229° |
| 2026-05-04 18:10 | 48.36177 | 11.78496 | 1482 ft | 4 kts | 173° |
| 2026-05-04 18:11 | 48.36157 | 11.78537 | 1485 ft | 12 kts | 115° |
| 2026-05-04 18:11 | 48.36164 | 11.78808 | 1480 ft | 41 kts | 82° |
| 2026-05-04 18:11 | 48.36209 | 11.79359 | 1480 ft | 59 kts | 84° |
| 2026-05-04 18:11 | 48.36254 | 11.79963 | 1491 ft | 57 kts | 83° |
| 2026-05-04 18:12 | 48.36298 | 11.80539 | 1494 ft | 54 kts | 83° |
| 2026-05-04 18:12 | 48.36339 | 11.81093 | 1480 ft | 52 kts | 84° |
| 2026-05-04 18:12 | 48.36378 | 11.81619 | 1483 ft | 50 kts | 83° |
| 2026-05-04 18:12 | 48.36391 | 11.81943 | 1483 ft | 15 kts | 87° |
| 2026-05-04 18:13 | 48.36453 | 11.81990 | 1483 ft | 7 kts | 3° |
| 2026-05-04 18:13 | 48.36463 | 11.81991 | 1480 ft | 0 kts | 2° |
| 2026-05-04 18:13 | 48.36493 | 11.81991 | 1481 ft | 5 kts | 358° |
| 2026-05-04 18:14 | 48.36539 | 11.81987 | 1488 ft | 8 kts | 356° |
| 2026-05-04 18:14 | 48.36545 | 11.81986 | 1490 ft | 0 kts | 354° |
| 2026-05-04 18:15 | 48.36612 | 11.81976 | 1487 ft | 20 kts | 352° |
| 2026-05-04 18:15 | 48.36657 | 11.81732 | 1485 ft | 0 kts | 259° |
| 2026-05-04 18:16 | 48.36655 | 11.81717 | 1487 ft | 13 kts | 262° |
| 2026-05-04 18:16 | 48.36610 | 11.81150 | 1478 ft | 96 kts | 263° |
| 2026-05-04 18:17 | 48.36345 | 11.77663 | 2042 ft | 206 kts | 265° |
| 2026-05-04 18:17 | 48.36190 | 11.75386 | 2795 ft | 227 kts | 264° |
| 2026-05-04 18:17 | 48.35820 | 11.70418 | 4808 ft | 241 kts | 263° |
| 2026-05-04 18:18 | 48.35843 | 11.68066 | 5718 ft | 243 kts | 282° |
| 2026-05-04 18:18 | 48.36518 | 11.65657 | 6487 ft | 260 kts | 298° |
| 2026-05-04 18:18 | 48.37508 | 11.63234 | 6885 ft | 278 kts | 301° |
| 2026-05-04 18:18 | 48.38543 | 11.60797 | 6930 ft | 281 kts | 301° |
| 2026-05-04 18:19 | 48.40624 | 11.55812 | 6939 ft | 281 kts | 300° |
| 2026-05-04 18:19 | 48.41648 | 11.53309 | 6938 ft | 280 kts | 300° |
| 2026-05-04 18:19 | 48.42665 | 11.50807 | 6943 ft | 281 kts | 300° |
| 2026-05-04 18:20 | 48.43686 | 11.48291 | 6942 ft | 281 kts | 300° |
| 2026-05-04 18:20 | 48.44706 | 11.45779 | 6941 ft | 281 kts | 300° |
| 2026-05-04 18:20 | 48.46002 | 11.43584 | 6921 ft | 284 kts | 324° |
| 2026-05-04 18:20 | 48.47814 | 11.42429 | 6937 ft | 286 kts | 347° |
| 2026-05-04 18:21 | 48.49777 | 11.41887 | 6945 ft | 287 kts | 349° |
| 2026-05-04 18:21 | 48.51749 | 11.41403 | 6927 ft | 286 kts | 350° |
| 2026-05-04 18:21 | 48.53715 | 11.40910 | 6921 ft | 287 kts | 350° |
| 2026-05-04 18:21 | 48.55681 | 11.40399 | 6922 ft | 287 kts | 349° |
| 2026-05-04 18:22 | 48.57645 | 11.39874 | 6925 ft | 287 kts | 349° |
| 2026-05-04 18:22 | 48.59582 | 11.39348 | 6918 ft | 287 kts | 349° |
| 2026-05-04 18:22 | 48.61546 | 11.38810 | 6915 ft | 287 kts | 349° |
| 2026-05-04 18:22 | 48.63538 | 11.38261 | 6914 ft | 287 kts | 349° |
| 2026-05-04 18:23 | 48.65497 | 11.37721 | 6913 ft | 287 kts | 349° |
| 2026-05-04 18:23 | 48.67436 | 11.37186 | 6913 ft | 287 kts | 349° |
| 2026-05-04 18:23 | 48.69385 | 11.36543 | 6914 ft | 287 kts | 341° |
| 2026-05-04 18:23 | 48.71214 | 11.35354 | 6915 ft | 286 kts | 329° |
| 2026-05-04 18:24 | 48.72896 | 11.33746 | 6919 ft | 285 kts | 324° |
| 2026-05-04 18:24 | 48.74537 | 11.32053 | 6920 ft | 285 kts | 324° |
| 2026-05-04 18:24 | 48.76176 | 11.30348 | 6921 ft | 286 kts | 324° |
| 2026-05-04 18:24 | 48.77824 | 11.28652 | 6923 ft | 286 kts | 324° |
| 2026-05-04 18:25 | 48.79482 | 11.26961 | 6921 ft | 286 kts | 325° |
| 2026-05-04 18:25 | 48.81138 | 11.25279 | 6920 ft | 286 kts | 325° |
| 2026-05-04 18:25 | 48.82795 | 11.23596 | 6940 ft | 286 kts | 325° |
| 2026-05-04 18:25 | 48.84517 | 11.22070 | 6941 ft | 287 kts | 333° |
| 2026-05-04 18:26 | 48.86361 | 11.20895 | 6941 ft | 288 kts | 339° |
| 2026-05-04 18:26 | 48.88259 | 11.19912 | 6944 ft | 288 kts | 341° |
| 2026-05-04 18:26 | 48.90163 | 11.18968 | 6939 ft | 288 kts | 341° |
| 2026-05-04 18:26 | 48.92070 | 11.18022 | 6955 ft | 291 kts | 341° |
| 2026-05-04 18:27 | 48.94034 | 11.17040 | 7454 ft | 301 kts | 340° |
| 2026-05-04 18:27 | 48.96013 | 11.16050 | 8678 ft | 296 kts | 340° |
| 2026-05-04 18:27 | 48.97969 | 11.15069 | 9842 ft | 297 kts | 339° |
| 2026-05-04 18:27 | 48.99947 | 11.14062 | 10709 ft | 305 kts | 339° |
| 2026-05-04 18:28 | 49.02000 | 11.13006 | 11316 ft | 321 kts | 339° |
| 2026-05-04 18:28 | 49.04173 | 11.11889 | 11841 ft | 339 kts | 339° |
| 2026-05-04 18:28 | 49.06479 | 11.10708 | 12321 ft | 358 kts | 339° |
| 2026-05-04 18:28 | 49.08898 | 11.09472 | 12810 ft | 375 kts | 339° |
| 2026-05-04 18:29 | 49.11401 | 11.08193 | 13617 ft | 383 kts | 339° |
| 2026-05-04 18:29 | 49.13954 | 11.06892 | 14381 ft | 390 kts | 340° |
| 2026-05-04 18:29 | 49.16540 | 11.05577 | 15221 ft | 393 kts | 339° |
| 2026-05-04 18:29 | 49.19150 | 11.04247 | 16082 ft | 396 kts | 339° |
| 2026-05-04 18:30 | 49.23719 | 10.99873 | 17631 ft | 394 kts | 308° |
| 2026-05-04 18:30 | 49.25484 | 10.96580 | 18431 ft | 396 kts | 305° |
| 2026-05-04 18:30 | 49.27188 | 10.93284 | 18992 ft | 401 kts | 306° |
| 2026-05-04 18:31 | 49.28953 | 10.89938 | 19566 ft | 406 kts | 306° |
| 2026-05-04 18:31 | 49.30777 | 10.86566 | 20216 ft | 410 kts | 307° |
| 2026-05-04 18:31 | 49.32641 | 10.83178 | 20925 ft | 414 kts | 307° |
| 2026-05-04 18:31 | 49.34515 | 10.79805 | 21634 ft | 418 kts | 307° |
| 2026-05-04 18:32 | 49.36415 | 10.76404 | 22320 ft | 422 kts | 307° |
| 2026-05-04 18:32 | 49.38348 | 10.72957 | 23001 ft | 427 kts | 307° |
| 2026-05-04 18:32 | 49.40298 | 10.69481 | 23622 ft | 432 kts | 307° |
| 2026-05-04 18:32 | 49.42271 | 10.65962 | 24171 ft | 436 kts | 307° |
| 2026-05-04 18:33 | 49.44256 | 10.62419 | 24743 ft | 439 kts | 307° |
| 2026-05-04 18:33 | 49.46260 | 10.58840 | 25337 ft | 442 kts | 307° |
| 2026-05-04 18:33 | 49.48273 | 10.55241 | 25929 ft | 445 kts | 307° |
| 2026-05-04 18:33 | 49.50292 | 10.51625 | 26613 ft | 444 kts | 307° |
| 2026-05-04 18:34 | 49.52301 | 10.48031 | 27455 ft | 441 kts | 307° |
| 2026-05-04 18:34 | 49.54290 | 10.44469 | 28337 ft | 437 kts | 307° |
| 2026-05-04 18:34 | 49.56261 | 10.40934 | 29190 ft | 434 kts | 307° |
| 2026-05-04 18:34 | 49.58225 | 10.37403 | 30016 ft | 431 kts | 307° |
| 2026-05-04 18:35 | 49.60178 | 10.33900 | 30688 ft | 430 kts | 306° |
| 2026-05-04 18:35 | 49.61472 | 10.31570 | 31072 ft | 431 kts | 306° |
| 2026-05-04 18:35 | 49.63420 | 10.28047 | 31578 ft | 433 kts | 306° |
| 2026-05-04 18:35 | 49.65395 | 10.24468 | 31911 ft | 436 kts | 306° |
| 2026-05-04 18:36 | 49.67346 | 10.20930 | 31960 ft | 437 kts | 306° |
| 2026-05-04 18:36 | 49.71291 | 10.13769 | 31963 ft | 437 kts | 306° |
| 2026-05-04 18:37 | 49.75235 | 10.06593 | 31961 ft | 437 kts | 306° |
| 2026-05-04 18:37 | 49.79158 | 9.99439 | 31963 ft | 436 kts | 306° |
| 2026-05-04 18:38 | 49.83088 | 9.92248 | 31969 ft | 437 kts | 306° |
| 2026-05-04 18:38 | 49.87021 | 9.85036 | 31968 ft | 437 kts | 306° |
| 2026-05-04 18:39 | 49.90963 | 9.77785 | 31972 ft | 437 kts | 306° |
| 2026-05-04 18:39 | 49.94883 | 9.70557 | 31968 ft | 437 kts | 306° |
| 2026-05-04 18:40 | 49.98803 | 9.63313 | 31978 ft | 437 kts | 306° |
| 2026-05-04 18:40 | 50.02721 | 9.56054 | 31976 ft | 437 kts | 305° |
| 2026-05-04 18:41 | 50.06812 | 9.48994 | 31978 ft | 441 kts | 310° |
| 2026-05-04 18:41 | 50.11395 | 9.42575 | 31982 ft | 444 kts | 315° |
| 2026-05-04 18:42 | 50.16150 | 9.36574 | 31971 ft | 442 kts | 316° |
| 2026-05-04 18:42 | 50.20929 | 9.30554 | 31973 ft | 441 kts | 316° |
| 2026-05-04 18:43 | 50.25695 | 9.24513 | 31979 ft | 441 kts | 316° |
| 2026-05-04 18:43 | 50.30464 | 9.18447 | 31988 ft | 442 kts | 315° |
| 2026-05-04 18:44 | 50.35229 | 9.12363 | 31975 ft | 441 kts | 315° |
| 2026-05-04 18:44 | 50.39861 | 9.06443 | 31871 ft | 417 kts | 315° |
| 2026-05-04 18:44 | 50.42089 | 9.03589 | 31670 ft | 408 kts | 315° |
| 2026-05-04 18:45 | 50.44266 | 9.00796 | 31357 ft | 402 kts | 316° |
| 2026-05-04 18:45 | 50.46605 | 8.98390 | 30881 ft | 409 kts | 331° |
| 2026-05-04 18:45 | 50.49341 | 8.97056 | 30425 ft | 414 kts | 345° |
| 2026-05-04 18:45 | 50.52173 | 8.96321 | 30042 ft | 412 kts | 348° |
| 2026-05-04 18:46 | 50.55007 | 8.95708 | 29559 ft | 410 kts | 348° |
| 2026-05-04 18:46 | 50.57825 | 8.95159 | 29130 ft | 406 kts | 348° |
| 2026-05-04 18:46 | 50.60623 | 8.94628 | 28699 ft | 403 kts | 348° |
| 2026-05-04 18:46 | 50.63401 | 8.94099 | 28261 ft | 400 kts | 348° |
| 2026-05-04 18:47 | 50.66153 | 8.93569 | 27826 ft | 397 kts | 348° |
| 2026-05-04 18:47 | 50.68838 | 8.92794 | 27364 ft | 388 kts | 336° |
| 2026-05-04 18:47 | 50.71180 | 8.90854 | 26883 ft | 374 kts | 316° |
| 2026-05-04 18:47 | 50.72881 | 8.87890 | 26436 ft | 360 kts | 296° |
| 2026-05-04 18:48 | 50.74120 | 8.84477 | 26015 ft | 358 kts | 300° |
| 2026-05-04 18:48 | 50.75685 | 8.81393 | 25577 ft | 360 kts | 307° |
| 2026-05-04 18:48 | 50.77345 | 8.78448 | 25171 ft | 358 kts | 307° |
| 2026-05-04 18:48 | 50.78191 | 8.76932 | 25016 ft | 355 kts | 306° |
| 2026-05-04 18:49 | 50.78953 | 8.75540 | 24977 ft | 355 kts | 306° |
| 2026-05-04 18:49 | 50.80553 | 8.72544 | 24978 ft | 357 kts | 305° |
| 2026-05-04 18:49 | 50.82133 | 8.69513 | 24972 ft | 357 kts | 304° |
| 2026-05-04 18:50 | 50.83698 | 8.66457 | 24960 ft | 357 kts | 304° |
| 2026-05-04 18:50 | 50.85258 | 8.63382 | 24981 ft | 357 kts | 304° |
| 2026-05-04 18:50 | 50.86812 | 8.60303 | 24966 ft | 357 kts | 304° |
| 2026-05-04 18:50 | 50.88358 | 8.57226 | 24968 ft | 357 kts | 304° |
| 2026-05-04 18:51 | 50.89904 | 8.54143 | 24963 ft | 357 kts | 304° |
| 2026-05-04 18:51 | 50.91453 | 8.51051 | 24979 ft | 357 kts | 304° |
| 2026-05-04 18:51 | 50.92995 | 8.47964 | 24982 ft | 358 kts | 304° |
| 2026-05-04 18:51 | 50.94542 | 8.44865 | 24969 ft | 356 kts | 304° |
| 2026-05-04 18:52 | 50.96069 | 8.41804 | 24687 ft | 352 kts | 304° |
| 2026-05-04 18:52 | 50.97588 | 8.38750 | 24200 ft | 353 kts | 304° |
| 2026-05-04 18:52 | 50.99156 | 8.35742 | 23791 ft | 353 kts | 308° |
| 2026-05-04 18:52 | 51.00871 | 8.32927 | 23374 ft | 353 kts | 313° |
| 2026-05-04 18:53 | 51.02716 | 8.30354 | 22916 ft | 353 kts | 317° |
| 2026-05-04 18:53 | 51.04662 | 8.28057 | 22491 ft | 353 kts | 322° |
| 2026-05-04 18:53 | 51.06747 | 8.25992 | 22087 ft | 351 kts | 326° |
| 2026-05-04 18:53 | 51.08904 | 8.24074 | 21671 ft | 349 kts | 327° |
| 2026-05-04 18:54 | 51.11025 | 8.22219 | 21242 ft | 347 kts | 327° |
| 2026-05-04 18:54 | 51.13136 | 8.20354 | 20807 ft | 346 kts | 327° |
| 2026-05-04 18:54 | 51.15212 | 8.18511 | 20419 ft | 344 kts | 327° |
| 2026-05-04 18:54 | 51.17307 | 8.16645 | 20013 ft | 342 kts | 327° |
| 2026-05-04 18:55 | 51.19385 | 8.14814 | 19604 ft | 341 kts | 330° |
| 2026-05-04 18:55 | 51.24005 | 8.13830 | 19192 ft | 333 kts | 1° |
| 2026-05-04 18:55 | 51.26280 | 8.14132 | 19021 ft | 324 kts | 3° |
| 2026-05-04 18:56 | 51.28497 | 8.14473 | 18837 ft | 315 kts | 3° |
| 2026-05-04 18:56 | 51.30651 | 8.14814 | 18593 ft | 310 kts | 3° |
| 2026-05-04 18:56 | 51.32794 | 8.15146 | 18181 ft | 309 kts | 3° |
| 2026-05-04 18:56 | 51.34941 | 8.15469 | 17734 ft | 309 kts | 3° |
| 2026-05-04 18:57 | 51.37072 | 8.15781 | 17340 ft | 306 kts | 3° |
| 2026-05-04 18:57 | 51.39184 | 8.16085 | 16952 ft | 304 kts | 3° |
| 2026-05-04 18:57 | 51.41289 | 8.16376 | 16557 ft | 302 kts | 4° |
| 2026-05-04 18:57 | 51.43379 | 8.16638 | 16157 ft | 300 kts | 3° |
| 2026-05-04 18:58 | 51.45449 | 8.16885 | 15747 ft | 298 kts | 3° |
| 2026-05-04 18:58 | 51.47514 | 8.16947 | 15320 ft | 295 kts | 351° |
| 2026-05-04 18:58 | 51.49514 | 8.16339 | 14924 ft | 291 kts | 345° |
| 2026-05-04 18:58 | 51.51473 | 8.15549 | 14508 ft | 289 kts | 343° |
| 2026-05-04 18:59 | 51.53415 | 8.14721 | 14108 ft | 286 kts | 343° |
| 2026-05-04 18:59 | 51.55311 | 8.13899 | 13963 ft | 282 kts | 343° |
| 2026-05-04 18:59 | 51.57212 | 8.13070 | 13969 ft | 283 kts | 343° |
| 2026-05-04 18:59 | 51.59114 | 8.12240 | 13967 ft | 283 kts | 343° |
| 2026-05-04 19:00 | 51.61017 | 8.11409 | 13979 ft | 283 kts | 343° |
| 2026-05-04 19:00 | 51.62847 | 8.10291 | 13952 ft | 280 kts | 323° |
| 2026-05-04 19:00 | 51.64190 | 8.08093 | 13977 ft | 275 kts | 300° |
| 2026-05-04 19:00 | 51.65146 | 8.05424 | 13980 ft | 274 kts | 295° |
| 2026-05-04 19:01 | 51.66010 | 8.02683 | 13974 ft | 274 kts | 294° |
| 2026-05-04 19:01 | 51.66856 | 7.99928 | 13963 ft | 274 kts | 293° |
| 2026-05-04 19:01 | 51.67699 | 7.97168 | 13978 ft | 274 kts | 293° |
| 2026-05-04 19:01 | 51.68539 | 7.94411 | 13959 ft | 274 kts | 293° |
| 2026-05-04 19:02 | 51.69325 | 7.91621 | 13957 ft | 272 kts | 282° |
| 2026-05-04 19:02 | 51.69317 | 7.88666 | 13949 ft | 264 kts | 246° |
| 2026-05-04 19:02 | 51.68337 | 7.86234 | 13969 ft | 259 kts | 220° |
| 2026-05-04 19:02 | 51.66912 | 7.84477 | 13983 ft | 257 kts | 214° |
| 2026-05-04 19:03 | 51.65468 | 7.82798 | 13961 ft | 253 kts | 215° |
| 2026-05-04 19:03 | 51.64078 | 7.81148 | 13963 ft | 243 kts | 216° |
| 2026-05-04 19:03 | 51.62761 | 7.79550 | 13953 ft | 230 kts | 216° |
| 2026-05-04 19:03 | 51.61538 | 7.78045 | 13946 ft | 211 kts | 216° |
| 2026-05-04 19:04 | 51.60432 | 7.76673 | 13871 ft | 192 kts | 216° |
| 2026-05-04 19:04 | 51.59370 | 7.75350 | 13201 ft | 199 kts | 216° |
| 2026-05-04 19:04 | 51.58239 | 7.73946 | 12381 ft | 209 kts | 216° |
| 2026-05-04 19:04 | 51.57107 | 7.72558 | 11938 ft | 198 kts | 217° |
| 2026-05-04 19:05 | 51.56061 | 7.71211 | 11605 ft | 183 kts | 217° |
| 2026-05-04 19:05 | 51.55096 | 7.69998 | 11249 ft | 174 kts | 216° |
| 2026-05-04 19:05 | 51.54134 | 7.68801 | 10370 ft | 183 kts | 216° |
| 2026-05-04 19:05 | 51.53037 | 7.67453 | 9059 ft | 212 kts | 217° |
| 2026-05-04 19:06 | 51.51849 | 7.65978 | 8255 ft | 217 kts | 217° |
| 2026-05-04 19:06 | 51.50656 | 7.64485 | 7632 ft | 218 kts | 218° |
| 2026-05-04 19:06 | 51.49455 | 7.62982 | 7097 ft | 220 kts | 218° |
| 2026-05-04 19:06 | 51.48233 | 7.61455 | 6691 ft | 224 kts | 218° |
| 2026-05-04 19:07 | 51.46994 | 7.59909 | 6431 ft | 228 kts | 218° |
| 2026-05-04 19:07 | 51.45723 | 7.58324 | 6376 ft | 234 kts | 218° |
| 2026-05-04 19:07 | 51.44421 | 7.56683 | 6515 ft | 244 kts | 219° |
| 2026-05-04 19:07 | 51.43134 | 7.54860 | 6791 ft | 257 kts | 223° |
| 2026-05-04 19:08 | 51.41873 | 7.52760 | 7285 ft | 263 kts | 230° |
| 2026-05-04 19:08 | 51.40946 | 7.50225 | 7887 ft | 267 kts | 245° |
| 2026-05-04 19:08 | 51.40256 | 7.47422 | 8572 ft | 271 kts | 248° |
| 2026-05-04 19:08 | 51.39588 | 7.44573 | 9250 ft | 275 kts | 248° |
| 2026-05-04 19:09 | 51.38885 | 7.41647 | 9960 ft | 278 kts | 247° |
| 2026-05-04 19:09 | 51.38194 | 7.38842 | 10266 ft | 272 kts | 246° |
| 2026-05-04 19:09 | 51.37496 | 7.36066 | 9830 ft | 274 kts | 246° |
| 2026-05-04 19:09 | 51.36657 | 7.33346 | 9223 ft | 277 kts | 237° |
| 2026-05-04 19:10 | 51.35598 | 7.30815 | 8822 ft | 273 kts | 233° |
| 2026-05-04 19:10 | 51.34518 | 7.28384 | 8457 ft | 271 kts | 233° |
| 2026-05-04 19:10 | 51.33437 | 7.25944 | 8162 ft | 266 kts | 233° |
| 2026-05-04 19:10 | 51.32383 | 7.23541 | 7855 ft | 262 kts | 234° |
| 2026-05-04 19:11 | 51.31598 | 7.20879 | 7460 ft | 265 kts | 252° |
| 2026-05-04 19:11 | 51.31363 | 7.17946 | 7137 ft | 266 kts | 265° |
| 2026-05-04 19:11 | 51.31178 | 7.15026 | 6962 ft | 263 kts | 249° |
| 2026-05-04 19:11 | 51.30254 | 7.12538 | 6976 ft | 262 kts | 228° |
| 2026-05-04 19:12 | 51.29011 | 7.10405 | 6981 ft | 261 kts | 224° |
| 2026-05-04 19:12 | 51.26543 | 7.06155 | 6957 ft | 264 kts | 240° |
| 2026-05-04 19:12 | 51.26098 | 7.03310 | 6990 ft | 272 kts | 271° |
| 2026-05-04 19:13 | 51.26559 | 7.00356 | 6970 ft | 278 kts | 296° |
| 2026-05-04 19:13 | 51.27822 | 6.98004 | 6998 ft | 284 kts | 317° |
| 2026-05-04 19:13 | 51.29404 | 6.96103 | 6973 ft | 285 kts | 322° |
| 2026-05-04 19:13 | 51.31036 | 6.94291 | 6973 ft | 285 kts | 323° |
| 2026-05-04 19:14 | 51.32672 | 6.92497 | 6966 ft | 285 kts | 323° |
| 2026-05-04 19:14 | 51.34306 | 6.90709 | 6971 ft | 285 kts | 323° |
| 2026-05-04 19:14 | 51.35941 | 6.88897 | 6960 ft | 285 kts | 322° |
| 2026-05-04 19:14 | 51.37742 | 6.87513 | 6944 ft | 289 kts | 347° |
| 2026-05-04 19:15 | 51.39723 | 6.87524 | 6903 ft | 284 kts | 13° |
| 2026-05-04 19:15 | 51.41529 | 6.88752 | 6521 ft | 284 kts | 30° |
| 2026-05-04 19:15 | 51.43231 | 6.90384 | 6137 ft | 285 kts | 32° |
| 2026-05-04 19:15 | 51.44905 | 6.92081 | 5781 ft | 284 kts | 33° |
| 2026-05-04 19:16 | 51.46564 | 6.93783 | 5434 ft | 282 kts | 33° |
| 2026-05-04 19:16 | 51.48211 | 6.95478 | 5099 ft | 280 kts | 33° |
| 2026-05-04 19:16 | 51.49847 | 6.97203 | 4780 ft | 279 kts | 38° |
| 2026-05-04 19:16 | 51.51115 | 6.99504 | 4399 ft | 276 kts | 58° |
| 2026-05-04 19:17 | 51.52088 | 7.02150 | 4124 ft | 273 kts | 62° |
| 2026-05-04 19:17 | 51.52994 | 7.04806 | 4001 ft | 270 kts | 63° |
| 2026-05-04 19:17 | 51.53852 | 7.07499 | 3991 ft | 271 kts | 69° |
| 2026-05-04 19:17 | 51.54217 | 7.10440 | 3976 ft | 267 kts | 96° |
| 2026-05-04 19:18 | 51.53691 | 7.13209 | 3979 ft | 253 kts | 125° |
| 2026-05-04 19:18 | 51.52549 | 7.15231 | 3992 ft | 234 kts | 140° |
| 2026-05-04 19:18 | 51.51322 | 7.16871 | 3988 ft | 228 kts | 150° |
| 2026-05-04 19:18 | 51.49838 | 7.17578 | 3982 ft | 225 kts | 185° |
| 2026-05-04 19:19 | 51.48353 | 7.16878 | 4000 ft | 225 kts | 212° |
| 2026-05-04 19:19 | 51.47234 | 7.15139 | 4012 ft | 226 kts | 230° |
| 2026-05-04 19:19 | 51.46257 | 7.13166 | 4007 ft | 226 kts | 231° |
| 2026-05-04 19:19 | 51.45291 | 7.11179 | 3999 ft | 226 kts | 231° |
| 2026-05-04 19:20 | 51.44318 | 7.09180 | 3993 ft | 225 kts | 230° |
| 2026-05-04 19:20 | 51.43322 | 7.07230 | 3996 ft | 226 kts | 230° |
| 2026-05-04 19:20 | 51.42325 | 7.05271 | 3995 ft | 226 kts | 230° |
| 2026-05-04 19:20 | 51.41677 | 7.03971 | 3981 ft | 226 kts | 231° |
| 2026-05-04 19:21 | 51.40706 | 7.01976 | 3820 ft | 224 kts | 231° |
| 2026-05-04 19:21 | 51.39759 | 6.99998 | 3497 ft | 225 kts | 231° |
| 2026-05-04 19:21 | 51.38819 | 6.98024 | 3288 ft | 219 kts | 231° |
| 2026-05-04 19:21 | 51.37904 | 6.96098 | 2926 ft | 217 kts | 231° |
| 2026-05-04 19:22 | 51.36981 | 6.94157 | 2460 ft | 219 kts | 231° |
| 2026-05-04 19:22 | 51.36055 | 6.92211 | 2098 ft | 216 kts | 231° |
| 2026-05-04 19:22 | 51.35164 | 6.90344 | 1978 ft | 207 kts | 231° |
| 2026-05-04 19:22 | 51.34294 | 6.88515 | 1760 ft | 205 kts | 231° |
| 2026-05-04 19:23 | 51.33435 | 6.86702 | 1490 ft | 204 kts | 231° |
| 2026-05-04 19:23 | 51.32753 | 6.84711 | 1493 ft | 206 kts | 243° |
| 2026-05-04 19:23 | 51.32154 | 6.82691 | 1184 ft | 195 kts | 238° |
| 2026-05-04 19:23 | 51.31359 | 6.81028 | 851 ft | 181 kts | 227° |
| 2026-05-04 19:24 | 51.30587 | 6.79473 | 503 ft | 175 kts | 229° |
| 2026-05-04 19:24 | 51.29848 | 6.77993 | 322 ft | 173 kts | 230° |
| 2026-05-04 19:24 | 51.29047 | 6.76327 | 993 ft | 200 kts | 232° |
| 2026-05-04 19:24 | 51.28160 | 6.74373 | 1657 ft | 237 kts | 233° |
| 2026-05-04 19:25 | 51.27164 | 6.72154 | 2345 ft | 237 kts | 233° |
| 2026-05-04 19:25 | 51.26275 | 6.70171 | 2792 ft | 209 kts | 233° |
| 2026-05-04 19:25 | 51.25544 | 6.68177 | 2986 ft | 209 kts | 251° |
| 2026-05-04 19:25 | 51.25441 | 6.65887 | 2995 ft | 214 kts | 280° |
| 2026-05-04 19:26 | 51.26130 | 6.63786 | 2986 ft | 219 kts | 316° |
| 2026-05-04 19:26 | 51.27445 | 6.62554 | 3013 ft | 222 kts | 338° |
| 2026-05-04 19:26 | 51.28905 | 6.61750 | 2999 ft | 222 kts | 339° |
| 2026-05-04 19:26 | 51.30377 | 6.60990 | 2990 ft | 226 kts | 354° |
| 2026-05-04 19:27 | 51.31946 | 6.61439 | 3373 ft | 238 kts | 30° |
| 2026-05-04 19:27 | 51.33266 | 6.62950 | 4247 ft | 228 kts | 40° |
| 2026-05-04 19:27 | 51.34466 | 6.64617 | 4781 ft | 228 kts | 42° |
| 2026-05-04 19:27 | 51.35646 | 6.66323 | 4995 ft | 229 kts | 43° |
| 2026-05-04 19:28 | 51.36826 | 6.68040 | 4994 ft | 230 kts | 43° |
| 2026-05-04 19:28 | 51.38017 | 6.69777 | 4995 ft | 232 kts | 43° |
| 2026-05-04 19:28 | 51.39208 | 6.71511 | 4984 ft | 231 kts | 43° |
| 2026-05-04 19:28 | 51.40414 | 6.73265 | 4988 ft | 236 kts | 43° |
| 2026-05-04 19:29 | 51.41631 | 6.75038 | 4993 ft | 237 kts | 43° |
| 2026-05-04 19:29 | 51.42852 | 6.76815 | 4996 ft | 237 kts | 43° |
| 2026-05-04 19:29 | 51.44075 | 6.78595 | 4995 ft | 237 kts | 43° |
| 2026-05-04 19:29 | 51.45301 | 6.80377 | 4997 ft | 237 kts | 43° |
| 2026-05-04 19:30 | 51.46516 | 6.82173 | 4992 ft | 237 kts | 50° |
| 2026-05-04 19:30 | 51.47473 | 6.84316 | 4997 ft | 236 kts | 60° |
| 2026-05-04 19:30 | 51.48293 | 6.86609 | 4996 ft | 236 kts | 62° |
| 2026-05-04 19:30 | 51.49083 | 6.88913 | 4997 ft | 236 kts | 63° |
| 2026-05-04 19:31 | 51.49874 | 6.91241 | 4995 ft | 236 kts | 63° |
| 2026-05-04 19:31 | 51.50659 | 6.93555 | 4999 ft | 236 kts | 63° |
| 2026-05-04 19:31 | 51.51443 | 6.95870 | 4994 ft | 236 kts | 63° |
| 2026-05-04 19:31 | 51.52227 | 6.98186 | 4993 ft | 236 kts | 63° |
| 2026-05-04 19:32 | 51.53016 | 7.00512 | 4997 ft | 236 kts | 63° |
| 2026-05-04 19:32 | 51.53800 | 7.02824 | 4996 ft | 236 kts | 63° |
| 2026-05-04 19:32 | 51.54588 | 7.05138 | 4996 ft | 236 kts | 63° |
| 2026-05-04 19:32 | 51.55383 | 7.07482 | 4994 ft | 236 kts | 63° |
| 2026-05-04 19:33 | 51.56163 | 7.09782 | 4997 ft | 236 kts | 63° |
| 2026-05-04 19:33 | 51.56947 | 7.12091 | 4997 ft | 236 kts | 63° |
| 2026-05-04 19:33 | 51.57630 | 7.14532 | 4986 ft | 233 kts | 83° |
| 2026-05-04 19:33 | 51.57505 | 7.17062 | 4994 ft | 227 kts | 116° |
| 2026-05-04 19:34 | 51.56553 | 7.19022 | 4998 ft | 221 kts | 150° |
| 2026-05-04 19:34 | 51.55132 | 7.19743 | 4997 ft | 216 kts | 184° |
| 2026-05-04 19:34 | 51.53674 | 7.19242 | 5009 ft | 215 kts | 199° |
| 2026-05-04 19:34 | 51.52285 | 7.18393 | 4953 ft | 211 kts | 202° |
| 2026-05-04 19:35 | 51.50924 | 7.17487 | 4645 ft | 212 kts | 206° |
| 2026-05-04 19:35 | 51.49723 | 7.16116 | 4314 ft | 214 kts | 224° |
| 2026-05-04 19:35 | 51.48707 | 7.14361 | 4037 ft | 213 kts | 227° |
| 2026-05-04 19:35 | 51.47587 | 7.12804 | 3761 ft | 213 kts | 214° |
| 2026-05-04 19:36 | 51.46358 | 7.11481 | 3482 ft | 213 kts | 213° |
| 2026-05-04 19:36 | 51.45181 | 7.10025 | 3190 ft | 214 kts | 222° |
| 2026-05-04 19:36 | 51.44168 | 7.08284 | 2996 ft | 213 kts | 231° |
| 2026-05-04 19:36 | 51.43286 | 7.06364 | 2995 ft | 215 kts | 233° |
| 2026-05-04 19:37 | 51.42422 | 7.04421 | 2988 ft | 212 kts | 232° |
| 2026-05-04 19:37 | 51.41545 | 7.02520 | 2716 ft | 213 kts | 231° |
| 2026-05-04 19:37 | 51.40643 | 7.00613 | 2419 ft | 213 kts | 231° |
| 2026-05-04 19:37 | 51.39755 | 6.98754 | 2139 ft | 213 kts | 230° |
| 2026-05-04 19:38 | 51.38864 | 6.96894 | 1997 ft | 206 kts | 231° |
| 2026-05-04 19:38 | 51.38024 | 6.95133 | 1992 ft | 193 kts | 231° |
| 2026-05-04 19:38 | 51.37211 | 6.93429 | 1996 ft | 191 kts | 231° |
| 2026-05-04 19:38 | 51.36413 | 6.91760 | 1805 ft | 189 kts | 231° |
| 2026-05-04 19:39 | 51.35618 | 6.90096 | 1554 ft | 187 kts | 230° |
| 2026-05-04 19:39 | 51.34825 | 6.88432 | 1319 ft | 188 kts | 230° |
| 2026-05-04 19:39 | 51.34045 | 6.86797 | 1360 ft | 180 kts | 231° |
| 2026-05-04 19:39 | 51.33315 | 6.85257 | 1334 ft | 171 kts | 231° |
| 2026-05-04 19:40 | 51.32597 | 6.83746 | 1121 ft | 168 kts | 229° |
| 2026-05-04 19:40 | 51.31883 | 6.82250 | 897 ft | 168 kts | 230° |
| 2026-05-04 19:40 | 51.31175 | 6.80766 | 668 ft | 167 kts | 230° |
| 2026-05-04 19:40 | 51.30476 | 6.79297 | 457 ft | 164 kts | 231° |
| 2026-05-04 19:41 | 51.29811 | 6.77895 | 222 ft | 152 kts | 230° |
| 2026-05-04 19:41 | 51.29246 | 6.76719 | 135 ft | 80 kts | 233° |
| 2026-05-04 19:41 | 51.29155 | 6.76523 | 137 ft | 0 kts | 232° |
| 2026-05-04 19:41 | 51.29103 | 6.76417 | 143 ft | 27 kts | 231° |
| 2026-05-04 19:42 | 51.28923 | 6.76046 | 135 ft | 55 kts | 233° |
| 2026-05-04 19:42 | 51.28779 | 6.75797 | 137 ft | 3 kts | 214° |
| 2026-05-04 19:42 | 51.28770 | 6.75787 | 132 ft | 7 kts | 213° |
| 2026-05-04 19:42 | 51.28728 | 6.75743 | 136 ft | 0 kts | 212° |